sensor_id;sensor_type;location;lat;lon;timestamp;pressure;altitude;pressure_sealevel;temperature;humidity
829;BME280;396;52.558;13.188;2023-02-11T00:00:14;102399.44;;;3.89;85.12
829;BME280;396;52.558;13.188;2023-02-11T00:02:40;102388.53;;;3.91;85.18
829;BME280;396;52.558;13.188;2023-02-11T00:05:07;102385.44;;;3.87;85.12
829;BME280;396;52.558;13.188;2023-02-11T00:07:36;102395.56;;;3.85;85.54
829;BME280;396;52.558;13.188;2023-02-11T00:10:02;102400.06;;;3.85;85.89
829;BME280;396;52.558;13.188;2023-02-11T00:12:30;102412.88;;;3.83;85.97
829;BME280;396;52.558;13.188;2023-02-11T00:14:57;102418.22;;;3.83;85.98
829;BME280;396;52.558;13.188;2023-02-11T00:17:23;102425.41;;;3.89;85.88
829;BME280;396;52.558;13.188;2023-02-11T00:19:50;102422.91;;;3.94;85.52
829;BME280;396;52.558;13.188;2023-02-11T00:22:17;102409.94;;;3.97;85.61
829;BME280;396;52.558;13.188;2023-02-11T00:24:46;102398.16;;;3.98;85.99
829;BME280;396;52.558;13.188;2023-02-11T00:27:12;102394.22;;;4.08;85.21
829;BME280;396;52.558;13.188;2023-02-11T00:29:39;102394.00;;;4.09;84.70
829;BME280;396;52.558;13.188;2023-02-11T00:32:06;102380.59;;;4.09;84.99
829;BME280;396;52.558;13.188;2023-02-11T00:34:33;102375.41;;;4.14;85.33
829;BME280;396;52.558;13.188;2023-02-11T00:37:00;102371.69;;;4.15;85.58
829;BME280;396;52.558;13.188;2023-02-11T00:39:27;102370.84;;;4.21;84.62
829;BME280;396;52.558;13.188;2023-02-11T00:41:55;102364.63;;;4.27;84.46
829;BME280;396;52.558;13.188;2023-02-11T00:44:22;102388.13;;;4.32;84.48
829;BME280;396;52.558;13.188;2023-02-11T00:46:48;102389.16;;;4.31;84.58
829;BME280;396;52.558;13.188;2023-02-11T00:49:15;102399.84;;;4.38;84.74
829;BME280;396;52.558;13.188;2023-02-11T00:51:42;102400.50;;;4.33;85.27
829;BME280;396;52.558;13.188;2023-02-11T00:54:08;102397.16;;;4.38;85.52
829;BME280;396;52.558;13.188;2023-02-11T00:56:35;102390.50;;;4.47;84.89
829;BME280;396;52.558;13.188;2023-02-11T00:59:03;102385.19;;;4.40;85.28
829;BME280;396;52.558;13.188;2023-02-11T01:01:29;102377.06;;;4.53;85.18
829;BME280;396;52.558;13.188;2023-02-11T01:03:56;102360.31;;;4.58;85.00
829;BME280;396;52.558;13.188;2023-02-11T01:06:23;102346.25;;;4.63;84.99
829;BME280;396;52.558;13.188;2023-02-11T01:08:49;102348.69;;;4.64;85.30
829;BME280;396;52.558;13.188;2023-02-11T01:11:18;102346.81;;;4.65;85.45
829;BME280;396;52.558;13.188;2023-02-11T01:13:45;102332.56;;;4.71;85.37
829;BME280;396;52.558;13.188;2023-02-11T01:16:13;102331.50;;;4.72;85.51
829;BME280;396;52.558;13.188;2023-02-11T01:18:40;102320.13;;;4.76;84.74
829;BME280;396;52.558;13.188;2023-02-11T01:21:08;102338.47;;;4.79;84.25
829;BME280;396;52.558;13.188;2023-02-11T01:23:35;102323.56;;;4.84;84.04
829;BME280;396;52.558;13.188;2023-02-11T01:26:01;102333.03;;;4.86;84.19
829;BME280;396;52.558;13.188;2023-02-11T01:28:29;102331.66;;;4.77;84.51
829;BME280;396;52.558;13.188;2023-02-11T01:30:56;102322.81;;;4.76;84.48
829;BME280;396;52.558;13.188;2023-02-11T01:33:24;102320.28;;;4.81;84.57
829;BME280;396;52.558;13.188;2023-02-11T01:35:51;102308.94;;;4.79;84.77
829;BME280;396;52.558;13.188;2023-02-11T01:38:19;102305.38;;;4.86;84.31
829;BME280;396;52.558;13.188;2023-02-11T01:40:47;102305.00;;;4.82;84.56
829;BME280;396;52.558;13.188;2023-02-11T01:43:14;102298.38;;;4.85;84.26
829;BME280;396;52.558;13.188;2023-02-11T01:45:54;102291.13;;;4.85;84.53
829;BME280;396;52.558;13.188;2023-02-11T01:48:27;102290.16;;;4.79;84.65
829;BME280;396;52.558;13.188;2023-02-11T01:50:59;102298.13;;;4.86;84.66
829;BME280;396;52.558;13.188;2023-02-11T01:53:27;102290.91;;;4.87;84.46
829;BME280;396;52.558;13.188;2023-02-11T01:56:12;102290.97;;;4.80;85.10
829;BME280;396;52.558;13.188;2023-02-11T01:59:02;102276.13;;;4.77;85.76
829;BME280;396;52.558;13.188;2023-02-11T02:01:32;102270.75;;;4.77;85.86
829;BME280;396;52.558;13.188;2023-02-11T02:04:02;102258.09;;;4.85;85.47
829;BME280;396;52.558;13.188;2023-02-11T02:06:33;102261.59;;;4.85;85.40
829;BME280;396;52.558;13.188;2023-02-11T02:09:03;102262.22;;;4.87;85.50
829;BME280;396;52.558;13.188;2023-02-11T02:11:31;102273.78;;;4.88;85.59
829;BME280;396;52.558;13.188;2023-02-11T02:13:58;102272.34;;;4.85;85.73
829;BME280;396;52.558;13.188;2023-02-11T02:16:29;102267.50;;;4.94;85.86
829;BME280;396;52.558;13.188;2023-02-11T02:19:07;102262.09;;;5.00;85.34
829;BME280;396;52.558;13.188;2023-02-11T02:21:59;102265.44;;;4.96;85.56
829;BME280;396;52.558;13.188;2023-02-11T02:24:57;102284.00;;;4.97;85.66
829;BME280;396;52.558;13.188;2023-02-11T02:27:35;102289.28;;;5.04;85.51
829;BME280;396;52.558;13.188;2023-02-11T02:30:23;102278.56;;;5.04;85.67
829;BME280;396;52.558;13.188;2023-02-11T02:33:04;102276.25;;;5.07;85.74
829;BME280;396;52.558;13.188;2023-02-11T02:35:44;102270.28;;;5.05;85.96
829;BME280;396;52.558;13.188;2023-02-11T02:38:15;102279.38;;;5.04;85.88
829;BME280;396;52.558;13.188;2023-02-11T02:40:47;102260.00;;;5.02;85.85
829;BME280;396;52.558;13.188;2023-02-11T02:43:16;102241.72;;;4.93;86.74
829;BME280;396;52.558;13.188;2023-02-11T02:45:43;102240.00;;;4.98;86.77
829;BME280;396;52.558;13.188;2023-02-11T02:48:24;102230.69;;;5.01;86.79
829;BME280;396;52.558;13.188;2023-02-11T02:50:59;102246.31;;;5.04;86.45
829;BME280;396;52.558;13.188;2023-02-11T02:53:33;102238.75;;;5.01;86.76
829;BME280;396;52.558;13.188;2023-02-11T02:56:05;102246.13;;;5.05;86.80
829;BME280;396;52.558;13.188;2023-02-11T02:58:53;102245.34;;;4.98;87.31
829;BME280;396;52.558;13.188;2023-02-11T03:01:27;102244.53;;;4.98;87.23
829;BME280;396;52.558;13.188;2023-02-11T03:04:04;102234.56;;;5.05;87.04
829;BME280;396;52.558;13.188;2023-02-11T03:06:33;102230.84;;;5.06;87.53
829;BME280;396;52.558;13.188;2023-02-11T03:09:07;102221.13;;;5.05;87.36
829;BME280;396;52.558;13.188;2023-02-11T03:11:36;102226.84;;;5.09;87.15
829;BME280;396;52.558;13.188;2023-02-11T03:14:07;102217.53;;;5.11;87.12
829;BME280;396;52.558;13.188;2023-02-11T03:16:35;102219.66;;;5.09;87.19
829;BME280;396;52.558;13.188;2023-02-11T03:19:09;102225.06;;;5.02;87.74
829;BME280;396;52.558;13.188;2023-02-11T03:21:38;102233.94;;;5.03;87.90
829;BME280;396;52.558;13.188;2023-02-11T03:24:08;102231.94;;;4.98;88.40
829;BME280;396;52.558;13.188;2023-02-11T03:26:38;102223.22;;;5.03;88.25
829;BME280;396;52.558;13.188;2023-02-11T03:29:09;102224.84;;;5.04;88.14
829;BME280;396;52.558;13.188;2023-02-11T03:31:42;102211.59;;;5.09;88.31
829;BME280;396;52.558;13.188;2023-02-11T03:34:15;102212.03;;;5.06;88.57
829;BME280;396;52.558;13.188;2023-02-11T03:36:49;102211.59;;;5.09;88.54
829;BME280;396;52.558;13.188;2023-02-11T03:39:20;102205.91;;;4.99;89.09
829;BME280;396;52.558;13.188;2023-02-11T03:41:48;102210.22;;;5.00;89.30
829;BME280;396;52.558;13.188;2023-02-11T03:44:18;102201.16;;;5.01;89.46
829;BME280;396;52.558;13.188;2023-02-11T03:46:49;102205.22;;;5.03;89.53
829;BME280;396;52.558;13.188;2023-02-11T03:49:19;102215.78;;;5.05;89.29
829;BME280;396;52.558;13.188;2023-02-11T03:51:48;102213.66;;;5.07;89.59
829;BME280;396;52.558;13.188;2023-02-11T03:54:20;102212.03;;;5.06;89.89
829;BME280;396;52.558;13.188;2023-02-11T03:56:52;102214.09;;;5.04;90.19
829;BME280;396;52.558;13.188;2023-02-11T03:59:19;102214.72;;;5.06;90.22
829;BME280;396;52.558;13.188;2023-02-11T04:01:46;102219.03;;;5.07;90.37
829;BME280;396;52.558;13.188;2023-02-11T04:04:13;102206.66;;;5.06;90.73
829;BME280;396;52.558;13.188;2023-02-11T04:06:41;102217.78;;;5.10;90.73
829;BME280;396;52.558;13.188;2023-02-11T04:09:09;102207.72;;;5.05;90.93
829;BME280;396;52.558;13.188;2023-02-11T04:11:36;102211.59;;;5.09;91.27
829;BME280;396;52.558;13.188;2023-02-11T04:14:03;102214.41;;;5.14;91.18
829;BME280;396;52.558;13.188;2023-02-11T04:16:29;102221.88;;;5.12;91.66
829;BME280;396;52.558;13.188;2023-02-11T04:18:56;102222.63;;;5.19;91.46
829;BME280;396;52.558;13.188;2023-02-11T04:21:23;102218.06;;;5.20;91.77
829;BME280;396;52.558;13.188;2023-02-11T04:23:51;102223.00;;;5.23;91.62
829;BME280;396;52.558;13.188;2023-02-11T04:26:17;102225.44;;;5.24;91.61
829;BME280;396;52.558;13.188;2023-02-11T04:28:44;102218.44;;;5.23;92.54
829;BME280;396;52.558;13.188;2023-02-11T04:31:10;102212.16;;;5.29;92.64
829;BME280;396;52.558;13.188;2023-02-11T04:33:37;102207.22;;;5.26;93.50
829;BME280;396;52.558;13.188;2023-02-11T04:36:04;102206.06;;;5.22;94.28
829;BME280;396;52.558;13.188;2023-02-11T04:38:31;102205.84;;;5.24;94.60
829;BME280;396;52.558;13.188;2023-02-11T04:40:59;102200.09;;;5.20;95.13
829;BME280;396;52.558;13.188;2023-02-11T04:43:25;102197.25;;;5.15;95.43
829;BME280;396;52.558;13.188;2023-02-11T04:45:55;102198.31;;;5.14;95.74
829;BME280;396;52.558;13.188;2023-02-11T04:48:22;102192.31;;;5.12;96.86
829;BME280;396;52.558;13.188;2023-02-11T04:50:48;102192.56;;;5.11;97.13
829;BME280;396;52.558;13.188;2023-02-11T04:53:15;102188.38;;;5.15;97.46
829;BME280;396;52.558;13.188;2023-02-11T04:55:42;102187.09;;;5.17;97.21
829;BME280;396;52.558;13.188;2023-02-11T04:58:10;102180.47;;;5.20;97.17
829;BME280;396;52.558;13.188;2023-02-11T05:00:36;102176.97;;;5.19;97.16
829;BME280;396;52.558;13.188;2023-02-11T05:03:03;102164.72;;;5.23;97.26
829;BME280;396;52.558;13.188;2023-02-11T05:05:29;102171.16;;;5.22;97.84
829;BME280;396;52.558;13.188;2023-02-11T05:07:56;102167.16;;;5.25;98.28
829;BME280;396;52.558;13.188;2023-02-11T05:10:22;102167.16;;;5.25;98.47
829;BME280;396;52.558;13.188;2023-02-11T05:12:49;102167.03;;;5.20;99.23
829;BME280;396;52.558;13.188;2023-02-11T05:15:17;102159.78;;;5.20;99.44
829;BME280;396;52.558;13.188;2023-02-11T05:17:44;102162.47;;;5.20;99.87
829;BME280;396;52.558;13.188;2023-02-11T05:20:10;102151.66;;;5.27;99.66
829;BME280;396;52.558;13.188;2023-02-11T05:22:37;102143.22;;;5.23;99.70
829;BME280;396;52.558;13.188;2023-02-11T05:25:04;102140.06;;;5.26;99.83
829;BME280;396;52.558;13.188;2023-02-11T05:27:31;102143.13;;;5.30;99.81
829;BME280;396;52.558;13.188;2023-02-11T05:29:58;102143.59;;;5.27;100.00
829;BME280;396;52.558;13.188;2023-02-11T05:32:26;102144.88;;;5.24;100.00
829;BME280;396;52.558;13.188;2023-02-11T05:34:52;102139.03;;;5.27;100.00
829;BME280;396;52.558;13.188;2023-02-11T05:37:19;102135.16;;;5.23;100.00
829;BME280;396;52.558;13.188;2023-02-11T05:39:45;102132.50;;;5.23;100.00
829;BME280;396;52.558;13.188;2023-02-11T05:42:12;102126.97;;;5.18;100.00
829;BME280;396;52.558;13.188;2023-02-11T05:44:39;102132.34;;;5.18;100.00
829;BME280;396;52.558;13.188;2023-02-11T05:47:06;102121.00;;;5.16;100.00
829;BME280;396;52.558;13.188;2023-02-11T05:49:35;102110.13;;;5.11;100.00
829;BME280;396;52.558;13.188;2023-02-11T05:52:01;102122.88;;;5.16;100.00
829;BME280;396;52.558;13.188;2023-02-11T05:54:28;102126.97;;;5.18;100.00
829;BME280;396;52.558;13.188;2023-02-11T05:56:54;102121.38;;;5.20;100.00
829;BME280;396;52.558;13.188;2023-02-11T05:59:21;102121.00;;;5.16;100.00
829;BME280;396;52.558;13.188;2023-02-11T06:01:48;102108.63;;;5.15;100.00
829;BME280;396;52.558;13.188;2023-02-11T06:04:14;102119.13;;;5.17;100.00
829;BME280;396;52.558;13.188;2023-02-11T06:06:42;102131.44;;;5.24;100.00
829;BME280;396;52.558;13.188;2023-02-11T06:09:09;102138.91;;;5.22;100.00
829;BME280;396;52.558;13.188;2023-02-11T06:11:36;102134.69;;;5.26;100.00
829;BME280;396;52.558;13.188;2023-02-11T06:14:02;102136.50;;;5.32;100.00
829;BME280;396;52.558;13.188;2023-02-11T06:16:29;102132.19;;;5.31;100.00
829;BME280;396;52.558;13.188;2023-02-11T06:18:56;102129.50;;;5.31;100.00
829;BME280;396;52.558;13.188;2023-02-11T06:21:22;102131.69;;;5.35;100.00
829;BME280;396;52.558;13.188;2023-02-11T06:23:50;102131.00;;;5.39;100.00
829;BME280;396;52.558;13.188;2023-02-11T06:26:18;102126.13;;;5.48;100.00
829;BME280;396;52.558;13.188;2023-02-11T06:28:45;102106.38;;;5.42;100.00
829;BME280;396;52.558;13.188;2023-02-11T06:31:12;102114.44;;;5.42;100.00
829;BME280;396;52.558;13.188;2023-02-11T06:33:39;102107.66;;;5.40;100.00
829;BME280;396;52.558;13.188;2023-02-11T06:36:11;102096.09;;;5.39;100.00
829;BME280;396;52.558;13.188;2023-02-11T06:38:38;102099.16;;;5.43;100.00
829;BME280;396;52.558;13.188;2023-02-11T06:41:08;102095.88;;;5.41;100.00
829;BME280;396;52.558;13.188;2023-02-11T06:43:34;102104.75;;;5.41;100.00
829;BME280;396;52.558;13.188;2023-02-11T06:46:01;102101.00;;;5.42;100.00
829;BME280;396;52.558;13.188;2023-02-11T06:48:28;102098.44;;;5.47;100.00
829;BME280;396;52.558;13.188;2023-02-11T06:50:54;102105.69;;;5.47;100.00
829;BME280;396;52.558;13.188;2023-02-11T06:53:21;102106.28;;;5.49;100.00
829;BME280;396;52.558;13.188;2023-02-11T06:55:47;102116.00;;;5.50;100.00
829;BME280;396;52.558;13.188;2023-02-11T06:58:15;102116.00;;;5.50;100.00
829;BME280;396;52.558;13.188;2023-02-11T07:00:42;102116.69;;;5.57;100.00
829;BME280;396;52.558;13.188;2023-02-11T07:03:08;102115.31;;;5.66;100.00
829;BME280;396;52.558;13.188;2023-02-11T07:05:35;102119.31;;;5.75;100.00
829;BME280;396;52.558;13.188;2023-02-11T07:08:03;102117.22;;;5.77;100.00
829;BME280;396;52.558;13.188;2023-02-11T07:10:29;102110.72;;;5.85;100.00
829;BME280;396;52.558;13.188;2023-02-11T07:12:56;102103.97;;;5.94;100.00
829;BME280;396;52.558;13.188;2023-02-11T07:15:24;102109.09;;;5.96;100.00
829;BME280;396;52.558;13.188;2023-02-11T07:17:50;102088.41;;;5.96;100.00
829;BME280;396;52.558;13.188;2023-02-11T07:20:17;102105.84;;;6.05;100.00
829;BME280;396;52.558;13.188;2023-02-11T07:22:44;102090.38;;;6.01;100.00
829;BME280;396;52.558;13.188;2023-02-11T07:25:10;102097.88;;;6.11;100.00
829;BME280;396;52.558;13.188;2023-02-11T07:27:37;102097.16;;;6.15;100.00
829;BME280;396;52.558;13.188;2023-02-11T07:30:04;102100.94;;;6.26;100.00
829;BME280;396;52.558;13.188;2023-02-11T07:32:33;102105.84;;;6.17;100.00
829;BME280;396;52.558;13.188;2023-02-11T07:34:59;102093.09;;;6.24;100.00
829;BME280;396;52.558;13.188;2023-02-11T07:37:26;102081.16;;;6.32;100.00
829;BME280;396;52.558;13.188;2023-02-11T07:39:52;102095.16;;;6.46;100.00
829;BME280;396;52.558;13.188;2023-02-11T07:42:19;102099.38;;;6.42;100.00
829;BME280;396;52.558;13.188;2023-02-11T07:44:45;102098.72;;;6.46;100.00
829;BME280;396;52.558;13.188;2023-02-11T07:47:13;102100.09;;;6.49;100.00
829;BME280;396;52.558;13.188;2023-02-11T07:49:41;102107.69;;;6.52;100.00
829;BME280;396;52.558;13.188;2023-02-11T07:52:07;102092.72;;;6.56;100.00
829;BME280;396;52.558;13.188;2023-02-11T07:54:34;102092.22;;;6.59;100.00
829;BME280;396;52.558;13.188;2023-02-11T07:57:01;102103.22;;;6.69;100.00
829;BME280;396;52.558;13.188;2023-02-11T07:59:27;102090.78;;;6.68;100.00
829;BME280;396;52.558;13.188;2023-02-11T08:01:54;102092.09;;;6.66;100.00
829;BME280;396;52.558;13.188;2023-02-11T08:04:20;102096.88;;;6.75;100.00
829;BME280;396;52.558;13.188;2023-02-11T08:06:48;102099.94;;;6.67;100.00
829;BME280;396;52.558;13.188;2023-02-11T08:09:17;102106.88;;;6.51;100.00
829;BME280;396;52.558;13.188;2023-02-11T08:11:44;102102.66;;;6.55;100.00
829;BME280;396;52.558;13.188;2023-02-11T08:14:11;102117.28;;;6.60;100.00
829;BME280;396;52.558;13.188;2023-02-11T08:16:38;102118.81;;;6.55;100.00
829;BME280;396;52.558;13.188;2023-02-11T08:19:07;102127.13;;;6.54;100.00
829;BME280;396;52.558;13.188;2023-02-11T08:21:34;102133.22;;;6.49;100.00
829;BME280;396;52.558;13.188;2023-02-11T08:24:02;102130.50;;;6.49;100.00
829;BME280;396;52.558;13.188;2023-02-11T08:26:30;102147.38;;;6.45;100.00
829;BME280;396;52.558;13.188;2023-02-11T08:28:59;102141.53;;;6.48;100.00
829;BME280;396;52.558;13.188;2023-02-11T08:31:29;102141.41;;;6.43;100.00
829;BME280;396;52.558;13.188;2023-02-11T08:33:55;102137.75;;;6.37;100.00
829;BME280;396;52.558;13.188;2023-02-11T08:36:27;102136.28;;;6.29;100.00
829;BME280;396;52.558;13.188;2023-02-11T08:38:54;102140.34;;;6.32;100.00
829;BME280;396;52.558;13.188;2023-02-11T08:41:22;102143.16;;;6.25;100.00
829;BME280;396;52.558;13.188;2023-02-11T08:43:49;102143.63;;;6.34;100.00
829;BME280;396;52.558;13.188;2023-02-11T08:46:17;102157.78;;;6.41;100.00
829;BME280;396;52.558;13.188;2023-02-11T08:48:45;102141.78;;;6.46;100.00
829;BME280;396;52.558;13.188;2023-02-11T08:51:14;102130.16;;;6.46;100.00
829;BME280;396;52.558;13.188;2023-02-11T08:53:41;102124.09;;;6.39;100.00
829;BME280;396;52.558;13.188;2023-02-11T08:56:09;102122.56;;;6.43;100.00
829;BME280;396;52.558;13.188;2023-02-11T08:58:37;102128.66;;;6.38;100.00
829;BME280;396;52.558;13.188;2023-02-11T09:01:08;102127.84;;;6.38;100.00
829;BME280;396;52.558;13.188;2023-02-11T09:03:34;102136.97;;;6.48;100.00
829;BME280;396;52.558;13.188;2023-02-11T09:06:03;102125.94;;;6.50;100.00
829;BME280;396;52.558;13.188;2023-02-11T09:08:30;102126.44;;;6.47;100.00
829;BME280;396;52.558;13.188;2023-02-11T09:10:57;102116.34;;;6.54;100.00
829;BME280;396;52.558;13.188;2023-02-11T09:13:23;102132.59;;;6.59;100.00
829;BME280;396;52.558;13.188;2023-02-11T09:15:51;102140.81;;;6.64;100.00
829;BME280;396;52.558;13.188;2023-02-11T09:18:18;102141.84;;;6.63;100.00
829;BME280;396;52.558;13.188;2023-02-11T09:20:44;102144.53;;;6.63;100.00
829;BME280;396;52.558;13.188;2023-02-11T09:23:11;102146.06;;;6.59;100.00
829;BME280;396;52.558;13.188;2023-02-11T09:25:38;102171.72;;;6.62;100.00
829;BME280;396;52.558;13.188;2023-02-11T09:28:05;102174.88;;;6.70;100.00
829;BME280;396;52.558;13.188;2023-02-11T09:30:32;102171.00;;;6.78;100.00
829;BME280;396;52.558;13.188;2023-02-11T09:33:00;102175.22;;;6.74;100.00
829;BME280;396;52.558;13.188;2023-02-11T09:35:27;102160.94;;;6.73;100.00
829;BME280;396;52.558;13.188;2023-02-11T09:37:54;102152.00;;;6.73;100.00
829;BME280;396;52.558;13.188;2023-02-11T09:40:21;102152.00;;;6.73;100.00
829;BME280;396;52.558;13.188;2023-02-11T09:42:50;102167.72;;;6.76;100.00
829;BME280;396;52.558;13.188;2023-02-11T09:45:22;102170.06;;;6.72;100.00
829;BME280;396;52.558;13.188;2023-02-11T09:47:53;102180.13;;;6.77;100.00
829;BME280;396;52.558;13.188;2023-02-11T09:50:29;102174.50;;;6.78;100.00
829;BME280;396;52.558;13.188;2023-02-11T09:52:59;102177.56;;;6.82;100.00
829;BME280;396;52.558;13.188;2023-02-11T09:55:29;102181.16;;;6.88;100.00
829;BME280;396;52.558;13.188;2023-02-11T09:58:02;102188.53;;;6.80;100.00
829;BME280;396;52.558;13.188;2023-02-11T10:00:33;102188.53;;;6.80;100.00
829;BME280;396;52.558;13.188;2023-02-11T10:03:17;102198.03;;;6.83;100.00
829;BME280;396;52.558;13.188;2023-02-11T10:06:04;102209.28;;;6.92;100.00
829;BME280;396;52.558;13.188;2023-02-11T10:08:38;102198.59;;;6.97;100.00
829;BME280;396;52.558;13.188;2023-02-11T10:11:11;102189.47;;;6.98;100.00
829;BME280;396;52.558;13.188;2023-02-11T10:13:48;102186.56;;;6.88;100.00
829;BME280;396;52.558;13.188;2023-02-11T10:16:31;102187.72;;;6.92;100.00
829;BME280;396;52.558;13.188;2023-02-11T10:19:09;102179.53;;;6.87;100.00
829;BME280;396;52.558;13.188;2023-02-11T10:21:50;102173.66;;;6.90;100.00
829;BME280;396;52.558;13.188;2023-02-11T10:24:19;102176.44;;;6.95;100.00
829;BME280;396;52.558;13.188;2023-02-11T10:26:46;102180.47;;;6.92;100.00
829;BME280;396;52.558;13.188;2023-02-11T10:29:20;102180.91;;;7.01;100.00
829;BME280;396;52.558;13.188;2023-02-11T10:31:49;102185.00;;;7.03;100.00
829;BME280;396;52.558;13.188;2023-02-11T10:34:16;102175.63;;;7.06;100.00
829;BME280;396;52.558;13.188;2023-02-11T10:36:44;102188.88;;;6.96;100.00
829;BME280;396;52.558;13.188;2023-02-11T10:39:13;102176.81;;;6.98;100.00
829;BME280;396;52.558;13.188;2023-02-11T10:41:43;102184.16;;;7.15;100.00
829;BME280;396;52.558;13.188;2023-02-11T10:44:20;102186.13;;;7.19;100.00
829;BME280;396;52.558;13.188;2023-02-11T10:46:48;102189.91;;;7.18;100.00
829;BME280;396;52.558;13.188;2023-02-11T10:49:33;102190.13;;;7.17;100.00
829;BME280;396;52.558;13.188;2023-02-11T10:52:14;102209.22;;;7.15;100.00
829;BME280;396;52.558;13.188;2023-02-11T10:54:41;102210.63;;;7.18;100.00
829;BME280;396;52.558;13.188;2023-02-11T10:57:20;102194.22;;;7.19;100.00
829;BME280;396;52.558;13.188;2023-02-11T10:59:47;102181.81;;;7.18;100.00
829;BME280;396;52.558;13.188;2023-02-11T11:02:21;102173.03;;;7.11;100.00
829;BME280;396;52.558;13.188;2023-02-11T11:04:54;102169.88;;;7.14;100.00
829;BME280;396;52.558;13.188;2023-02-11T11:07:25;102165.63;;;7.18;100.00
829;BME280;396;52.558;13.188;2023-02-11T11:09:54;102169.16;;;7.19;100.00
829;BME280;396;52.558;13.188;2023-02-11T11:12:25;102174.19;;;7.15;100.00
829;BME280;396;52.558;13.188;2023-02-11T11:14:54;102164.59;;;7.07;100.00
829;BME280;396;52.558;13.188;2023-02-11T11:17:20;102165.41;;;7.08;100.00
829;BME280;396;52.558;13.188;2023-02-11T11:19:47;102156.50;;;7.07;100.00
829;BME280;396;52.558;13.188;2023-02-11T11:22:19;102168.47;;;7.12;100.00
829;BME280;396;52.558;13.188;2023-02-11T11:24:49;102177.34;;;7.12;100.00
829;BME280;396;52.558;13.188;2023-02-11T11:27:20;102178.16;;;7.13;100.00
829;BME280;396;52.558;13.188;2023-02-11T11:29:51;102156.63;;;7.13;100.00
829;BME280;396;52.558;13.188;2023-02-11T11:32:21;102162.34;;;7.16;100.00
829;BME280;396;52.558;13.188;2023-02-11T11:34:50;102157.78;;;7.17;100.00
829;BME280;396;52.558;13.188;2023-02-11T11:37:22;102157.31;;;7.20;100.00
829;BME280;396;52.558;13.188;2023-02-11T11:39:56;102155.44;;;7.20;100.00
829;BME280;396;52.558;13.188;2023-02-11T11:42:26;102164.19;;;7.27;100.00
829;BME280;396;52.558;13.188;2023-02-11T11:44:58;102164.09;;;7.22;100.00
829;BME280;396;52.558;13.188;2023-02-11T11:47:28;102162.88;;;7.30;100.00
829;BME280;396;52.558;13.188;2023-02-11T11:50:11;102155.88;;;7.29;100.00
829;BME280;396;52.558;13.188;2023-02-11T11:52:43;102155.06;;;7.28;100.00
829;BME280;396;52.558;13.188;2023-02-11T11:55:17;102146.25;;;7.33;100.00
829;BME280;396;52.558;13.188;2023-02-11T11:57:44;102151.63;;;7.33;100.00
829;BME280;396;52.558;13.188;2023-02-11T12:00:16;102157.38;;;7.37;100.00
829;BME280;396;52.558;13.188;2023-02-11T12:05:42;102151.59;;;7.45;100.00
829;BME280;396;52.558;13.188;2023-02-11T12:08:16;102153.91;;;7.53;100.00
829;BME280;396;52.558;13.188;2023-02-11T12:11:02;102160.69;;;7.55;100.00
829;BME280;396;52.558;13.188;2023-02-11T12:13:41;102165.06;;;7.45;100.00
829;BME280;396;52.558;13.188;2023-02-11T12:16:21;102157.75;;;7.57;100.00
829;BME280;396;52.558;13.188;2023-02-11T12:22:00;102156.88;;;7.68;100.00
829;BME280;396;52.558;13.188;2023-02-11T12:24:42;102166.44;;;7.76;100.00
829;BME280;396;52.558;13.188;2023-02-11T12:27:18;102156.47;;;7.76;100.00
829;BME280;396;52.558;13.188;2023-02-11T12:30:01;102156.41;;;7.71;100.00
829;BME280;396;52.558;13.188;2023-02-11T12:32:38;102178.44;;;7.68;100.00
829;BME280;396;52.558;13.188;2023-02-11T12:35:30;102171.34;;;7.79;100.00
829;BME280;396;52.558;13.188;2023-02-11T12:38:13;102176.50;;;7.80;100.00
829;BME280;396;52.558;13.188;2023-02-11T12:40:44;102169.72;;;7.78;100.00
829;BME280;396;52.558;13.188;2023-02-11T12:43:23;102163.50;;;7.77;100.00
829;BME280;396;52.558;13.188;2023-02-11T12:46:17;102169.38;;;7.74;100.00
829;BME280;396;52.558;13.188;2023-02-11T12:49:12;102173.81;;;7.80;100.00
829;BME280;396;52.558;13.188;2023-02-11T12:51:51;102154.75;;;7.87;100.00
829;BME280;396;52.558;13.188;2023-02-11T12:54:24;102158.13;;;7.94;100.00
829;BME280;396;52.558;13.188;2023-02-11T12:56:55;102154.03;;;7.92;100.00
829;BME280;396;52.558;13.188;2023-02-11T12:59:42;102155.69;;;7.93;100.00
829;BME280;396;52.558;13.188;2023-02-11T13:02:17;102159.28;;;7.98;100.00
829;BME280;396;52.558;13.188;2023-02-11T13:04:50;102164.34;;;7.95;100.00
829;BME280;396;52.558;13.188;2023-02-11T13:07:24;102169.25;;;7.98;100.00
829;BME280;396;52.558;13.188;2023-02-11T13:09:56;102175.63;;;7.92;100.00
829;BME280;396;52.558;13.188;2023-02-11T13:12:28;102178.38;;;7.97;100.00
829;BME280;396;52.558;13.188;2023-02-11T13:15:15;102170.41;;;8.02;100.00
829;BME280;396;52.558;13.188;2023-02-11T13:17:47;102173.59;;;7.99;100.00
829;BME280;396;52.558;13.188;2023-02-11T13:20:23;102173.66;;;8.04;100.00
829;BME280;396;52.558;13.188;2023-02-11T13:22:57;102178.97;;;7.99;100.00
829;BME280;396;52.558;13.188;2023-02-11T13:25:32;102177.44;;;8.03;100.00
829;BME280;396;52.558;13.188;2023-02-11T13:28:08;102189.53;;;8.00;100.00
829;BME280;396;52.558;13.188;2023-02-11T13:30:40;102190.94;;;8.03;100.00
829;BME280;396;52.558;13.188;2023-02-11T13:33:20;102183.16;;;8.06;100.00
829;BME280;396;52.558;13.188;2023-02-11T13:36:15;102184.47;;;8.04;100.00
829;BME280;396;52.558;13.188;2023-02-11T13:38:51;102191.00;;;8.08;100.00
829;BME280;396;52.558;13.188;2023-02-11T13:41:22;102198.13;;;7.97;100.00
829;BME280;396;52.558;13.188;2023-02-11T13:43:57;102204.16;;;8.04;100.00
829;BME280;396;52.558;13.188;2023-02-11T13:46:27;102206.63;;;8.06;100.00
829;BME280;396;52.558;13.188;2023-02-11T13:48:55;102218.47;;;8.05;100.00